Terminal Aerodrome Forecast
Issued by NWS

Home | Current Version | Previous Version | Text Only | Print | Product List | Glossary On
Versions: 1 2 3 4 5 6 7 8 9 10 11 12 13 14 15
000
FTUS44 KLIX 222330 AAA
TAFHDC
TAF AMD
KHDC 222330Z 2300/2324 19010G16KT P6SM VCSH SCT035 SCT045 SCT050
     FM230600 17012KT P6SM BKN035
     FM231200 17010KT P6SM BKN050
     FM231700 18013KT P6SM VCTS OVC045CB=

USA.gov is the U.S. government's official web portal to all federal, state and local government web resources and services.